Time;durP1;ratioP1;P1;durP2;ratioP2;P2;SDS_P1;SDS_P2;PMS_P1;PMS_P2;Temp;Humidity;BMP_temperature;BMP_pressure;BME280_temperature;BME280_humidity;BME280_pressure;Samples;Min_cycle;Max_cycle;Signal;HPM_P1;HPM_P2
2022/05/17 00:00:38;;;;;;;8.60;2.35;;;14.80;99.90;;;14.51;100.00;97668.66;5017455;28;20110;-43
2022/05/17 00:03:04;;;;;;;4.43;2.40;;;14.80;99.90;;;14.51;100.00;97679.28;5017586;28;21404;-42
2022/05/17 00:05:30;;;;;;;3.83;2.35;;;14.80;99.90;;;14.47;100.00;97673.28;5029328;28;20534;-42
2022/05/17 00:07:56;;;;;;;4.00;2.25;;;14.70;99.90;;;14.42;100.00;97677.09;5023207;28;20489;-43
2022/05/17 00:10:23;;;;;;;4.15;2.10;;;14.70;99.90;;;14.36;100.00;97682.69;5030781;28;20036;-42
2022/05/17 00:12:50;;;;;;;4.50;2.45;;;14.60;99.90;;;14.34;100.00;97672.16;5021979;28;20032;-44
2022/05/17 00:15:18;;;;;;;4.45;2.88;;;14.60;99.90;;;14.41;100.00;97676.22;5017929;28;20032;-44
2022/05/17 00:17:45;;;;;;;3.55;2.13;;;14.70;99.90;;;14.42;100.00;97677.09;5020058;28;20035;-42
2022/05/17 00:20:12;;;;;;;5.28;2.50;;;14.70;99.90;;;14.43;100.00;97684.13;5016309;28;20037;-44
2022/05/17 00:22:39;;;;;;;4.35;2.28;;;14.70;99.90;;;14.42;100.00;97685.03;5020246;28;20068;-42
2022/05/17 00:25:06;;;;;;;5.45;2.50;;;14.70;99.90;;;14.41;100.00;97678.88;5019555;28;20539;-43
2022/05/17 00:27:32;;;;;;;5.18;2.92;;;14.70;99.90;;;14.46;100.00;97670.69;5008305;28;20048;-44
2022/05/17 00:29:57;;;;;;;2.97;2.17;;;14.70;99.90;;;14.54;100.00;97683.59;5027060;22;20046;-46
2022/05/17 00:32:23;;;;;;;3.85;2.28;;;14.70;99.90;;;14.57;100.00;97679.00;4999643;28;20123;-44
2022/05/17 00:34:49;;;;;;;3.58;2.65;;;14.80;99.90;;;14.54;100.00;97671.19;5000576;28;20041;-46
2022/05/17 00:37:16;;;;;;;5.13;2.35;;;14.80;99.90;;;14.53;100.00;97677.41;4998264;28;20072;-43
2022/05/17 00:39:41;;;;;;;4.25;2.28;;;14.70;99.90;;;14.49;100.00;97675.84;5003516;28;20029;-46
2022/05/17 00:42:08;;;;;;;2.58;2.13;;;14.70;99.90;;;14.46;100.00;97673.34;5001470;28;20508;-43
2022/05/17 00:44:42;;;;;;;7.40;3.13;;;14.70;99.90;;;14.40;100.00;97674.50;5000992;28;20030;-45
2022/05/17 00:47:27;;;;;;;6.35;2.80;;;14.60;99.90;;;14.40;100.00;97678.94;5003367;28;20399;-46
2022/05/17 00:50:06;;;;;;;3.60;2.38;;;14.60;99.90;;;14.40;100.00;97676.31;5001297;28;20057;-44
2022/05/17 00:53:05;;;;;;;4.68;2.72;;;14.70;99.90;;;14.35;100.00;97673.00;4997401;28;20033;-45
2022/05/17 00:55:39;;;;;;;3.20;2.20;;;14.70;99.90;;;14.39;100.00;97671.91;5002900;28;20049;-46
2022/05/17 00:58:13;;;;;;;4.72;3.00;;;14.70;99.90;;;14.45;100.00;97671.63;4983912;28;20029;-45
2022/05/17 01:00:49;;;;;;;6.88;2.83;;;14.70;99.90;;;14.47;100.00;97667.97;4997072;28;20068;-47
2022/05/17 01:03:17;;;;;;;3.90;2.80;;;14.70;99.90;;;14.49;100.00;97666.09;4998295;28;21188;-46
2022/05/17 01:05:46;;;;;;;4.55;2.75;;;14.80;99.90;;;14.48;100.00;97663.50;4979871;28;20038;-45
2022/05/17 01:08:16;;;;;;;4.93;2.80;;;14.80;99.90;;;14.48;100.00;97668.81;5001356;28;20049;-44
2022/05/17 01:10:42;;;;;;;4.05;2.42;;;14.70;99.90;;;14.50;100.00;97661.66;5002091;28;20038;-45
2022/05/17 01:15:52;;;;;;;5.47;2.60;;;14.70;99.90;;;14.38;100.00;97659.59;5000067;28;20580;-47
2022/05/17 01:18:18;;;;;;;3.38;2.40;;;14.60;99.90;;;14.34;100.00;97664.19;5000869;28;20543;-47
2022/05/17 01:20:45;;;;;;;6.25;2.45;;;14.60;99.90;;;14.31;100.00;97657.22;4999075;28;20193;-47
2022/05/17 01:23:11;;;;;;;3.88;2.30;;;14.60;99.90;;;14.25;100.00;97654.03;4996109;28;20637;-47
2022/05/17 01:25:37;;;;;;;6.00;2.63;;;14.50;99.90;;;14.22;100.00;97659.47;5000273;28;20038;-45
2022/05/17 01:28:29;;;;;;;5.80;2.55;;;14.50;99.90;;;14.16;100.00;97660.63;4998690;28;20068;-47
2022/05/17 01:31:03;;;;;;;5.63;2.80;;;14.40;99.90;;;14.09;100.00;97662.69;5002381;28;20428;-44
2022/05/17 01:33:32;;;;;;;5.28;2.85;;;14.40;99.90;;;14.03;100.00;97657.69;5010425;28;21148;-42
2022/05/17 01:35:58;;;;;;;3.53;2.60;;;14.30;99.90;;;13.98;100.00;97653.50;5011040;28;20032;-44
2022/05/17 01:38:25;;;;;;;3.40;2.40;;;14.20;99.90;;;13.88;100.00;97655.75;5009807;28;20137;-43
2022/05/17 01:40:50;;;;;;;4.57;2.58;;;14.20;99.90;;;13.82;100.00;97658.66;5010156;28;20115;-46
2022/05/17 01:43:16;;;;;;;4.95;2.28;;;14.10;99.90;;;13.72;100.00;97652.94;5013295;28;20033;-47
2022/05/17 01:45:42;;;;;;;4.75;2.58;;;14.00;99.90;;;13.65;100.00;97657.63;5017763;28;20481;-46
2022/05/17 01:48:08;;;;;;;5.82;3.00;;;13.90;99.90;;;13.52;100.00;97653.84;4997696;28;20029;-47
2022/05/17 01:50:34;;;;;;;10.23;3.20;;;13.90;99.90;;;13.50;100.00;97658.34;4999918;28;20036;-46
2022/05/17 01:53:00;;;;;;;4.60;2.50;;;13.80;99.90;;;13.43;100.00;97655.09;4998508;28;20095;-46
2022/05/17 01:55:26;;;;;;;5.78;3.20;;;13.80;99.90;;;13.40;100.00;97663.16;5000259;28;20037;-47
2022/05/17 01:57:51;;;;;;;7.05;2.67;;;13.70;99.90;;;13.38;100.00;97666.81;4998198;28;20032;-45
2022/05/17 02:00:19;;;;;;;4.60;3.00;;;13.60;99.90;;;13.41;100.00;97669.34;4996620;28;20668;-45
2022/05/17 02:02:45;;;;;;;6.20;3.22;;;13.70;99.90;;;13.43;100.00;97663.03;5001078;28;20091;-47
2022/05/17 02:05:12;;;;;;;5.07;3.58;;;13.70;99.90;;;13.37;100.00;97652.72;4996032;28;20103;-47
2022/05/17 02:07:38;;;;;;;7.40;3.45;;;13.70;99.90;;;13.43;100.00;97662.19;4995410;28;20037;-44
2022/05/17 02:10:04;;;;;;;3.97;3.20;;;13.70;99.90;;;13.44;100.00;97655.94;4998596;28;20076;-47
2022/05/17 02:12:30;;;;;;;6.50;3.90;;;13.60;99.90;;;13.45;100.00;97655.88;5000089;28;20029;-46
2022/05/17 02:14:56;;;;;;;8.30;3.90;;;13.70;99.90;;;13.36;100.00;97637.75;5000508;28;20037;-44
2022/05/17 02:17:22;;;;;;;4.60;3.20;;;13.70;99.90;;;13.47;100.00;97655.81;4997617;28;20033;-47
2022/05/17 02:19:48;;;;;;;4.95;3.40;;;13.70;99.90;;;13.45;100.00;97658.53;5002110;28;20563;-47
2022/05/17 02:22:14;;;;;;;5.65;3.50;;;13.70;99.90;;;13.40;100.00;97655.22;4997398;28;20029;-47
2022/05/17 02:24:39;;;;;;;4.65;3.05;;;13.70;99.90;;;13.35;100.00;97649.25;4998158;28;20320;-47
2022/05/17 02:27:05;;;;;;;4.57;3.10;;;13.60;99.90;;;13.27;100.00;97648.72;4996421;28;20614;-45
2022/05/17 02:29:31;;;;;;;4.90;3.20;;;13.60;99.90;;;13.22;100.00;97659.50;4997570;28;20441;-43
2022/05/17 02:31:58;;;;;;;4.72;2.88;;;13.50;99.90;;;13.11;100.00;97645.88;5005695;28;20033;-44
2022/05/17 02:34:24;;;;;;;5.07;3.00;;;13.40;99.90;;;13.09;100.00;97653.88;5009247;28;20029;-43
2022/05/17 02:36:50;;;;;;;7.47;3.13;;;13.40;99.90;;;13.05;100.00;97670.00;4997399;28;20022;-45
2022/05/17 02:39:16;;;;;;;5.60;2.83;;;13.30;99.90;;;13.02;100.00;97662.16;4996587;28;23020;-47
2022/05/17 02:41:42;;;;;;;3.95;2.80;;;13.40;99.90;;;13.01;100.00;97668.38;4999384;28;20128;-43
2022/05/17 02:44:07;;;;;;;6.60;2.80;;;13.30;99.90;;;12.98;100.00;97664.09;4998674;28;20061;-45
2022/05/17 02:46:34;;;;;;;4.18;2.97;;;13.30;99.90;;;12.94;100.00;97670.44;5000782;28;20128;-47
2022/05/17 02:49:04;;;;;;;5.43;2.83;;;13.20;99.90;;;12.90;100.00;97669.72;4998765;28;20473;-47
2022/05/17 02:51:30;;;;;;;4.38;2.60;;;13.20;99.90;;;12.88;100.00;97665.38;4996849;28;20061;-43
2022/05/17 02:53:57;;;;;;;5.03;3.20;;;13.20;99.90;;;12.84;100.00;97669.09;5000805;28;20038;-47
2022/05/17 02:56:23;;;;;;;4.47;2.90;;;13.10;99.90;;;12.67;100.00;97653.91;4999769;28;20029;-44
2022/05/17 02:58:48;;;;;;;4.53;3.05;;;13.10;99.90;;;12.77;100.00;97674.63;4985675;28;20815;-47
2022/05/17 03:01:14;;;;;;;6.32;3.15;;;13.10;99.90;;;12.73;100.00;97682.78;4998096;28;20139;-47
2022/05/17 03:03:42;;;;;;;4.28;2.80;;;13.00;99.90;;;12.70;100.00;97685.53;4999417;28;20026;-47
2022/05/17 03:06:09;;;;;;;5.80;2.90;;;13.00;99.90;;;12.65;100.00;97683.09;4996602;28;20215;-45
2022/05/17 03:08:35;;;;;;;4.82;3.03;;;13.00;99.90;;;12.64;100.00;97696.38;4986299;28;20107;-47
2022/05/17 03:11:02;;;;;;;4.70;2.90;;;12.90;99.90;;;12.60;100.00;97687.72;5002247;28;20033;-44
2022/05/17 03:13:28;;;;;;;3.65;2.72;;;12.90;99.90;;;12.57;100.00;97691.31;5004001;28;20048;-45
2022/05/17 03:15:54;;;;;;;4.32;2.70;;;12.90;99.90;;;12.54;100.00;97696.75;5000680;28;20060;-46
2022/05/17 03:18:20;;;;;;;3.60;3.05;;;12.80;99.90;;;12.51;100.00;97701.31;4998584;28;20968;-44
2022/05/17 03:20:48;;;;;;;5.63;3.08;;;12.80;99.90;;;12.47;100.00;97700.56;4997755;28;20029;-45
2022/05/17 03:23:14;;;;;;;6.07;3.22;;;12.80;99.90;;;12.46;100.00;97700.63;4994089;28;20115;-47
2022/05/17 03:25:40;;;;;;;5.25;2.88;;;12.80;99.90;;;12.44;100.00;97702.47;4998293;28;20128;-44
2022/05/17 03:28:05;;;;;;;4.22;3.25;;;12.70;99.90;;;12.40;100.00;97696.44;4994962;28;20025;-44
2022/05/17 03:30:32;;;;;;;6.15;3.60;;;12.70;99.90;;;12.38;100.00;97706.19;5000810;28;20591;-45
2022/05/17 03:32:57;;;;;;;5.13;3.00;;;12.70;99.90;;;12.37;100.00;97705.34;4996646;28;20473;-44
2022/05/17 03:35:23;;;;;;;4.50;3.28;;;12.70;99.90;;;12.38;100.00;97703.56;5000202;28;20155;-44
2022/05/17 03:37:49;;;;;;;4.68;3.30;;;12.70;99.90;;;12.38;100.00;97699.16;4999969;28;20163;-43
2022/05/17 03:40:15;;;;;;;4.88;3.33;;;12.70;99.90;;;12.34;100.00;97700.16;4998943;28;20042;-45
2022/05/17 03:42:41;;;;;;;5.13;3.38;;;12.70;99.90;;;12.38;100.00;97704.44;4997195;28;20034;-46
2022/05/17 03:45:08;;;;;;;4.93;3.20;;;12.70;99.90;;;12.39;100.00;97711.44;5005186;28;20044;-45
2022/05/17 03:47:34;;;;;;;4.10;3.50;;;12.70;99.90;;;12.39;100.00;97713.22;4998491;28;20124;-49
2022/05/17 03:50:00;;;;;;;4.85;3.60;;;12.70;99.90;;;12.34;100.00;97712.53;4999874;28;20048;-46
2022/05/17 03:52:28;;;;;;;5.05;3.47;;;12.70;99.90;;;12.39;100.00;97716.72;5000951;28;20030;-46
2022/05/17 03:54:59;;;;;;;4.60;3.38;;;12.70;99.90;;;12.39;100.00;97721.16;4996791;28;20033;-46
2022/05/17 03:57:27;;;;;;;5.05;3.40;;;12.70;99.90;;;12.40;100.00;97712.31;5002689;28;20037;-48
2022/05/17 03:59:53;;;;;;;6.10;3.63;;;12.70;99.90;;;12.43;100.00;97720.09;5006108;28;20233;-44
2022/05/17 04:02:21;;;;;;;4.88;3.08;;;12.70;99.90;;;12.45;100.00;97722.69;5009547;28;20048;-47
2022/05/17 04:04:46;;;;;;;5.97;3.70;;;12.70;99.90;;;12.47;100.00;97728.78;5011901;28;20043;-47
2022/05/17 04:07:12;;;;;;;7.00;3.40;;;12.80;99.90;;;12.48;100.00;97728.72;5013267;28;20029;-47
2022/05/17 04:09:39;;;;;;;5.72;3.55;;;12.70;99.90;;;12.49;100.00;97730.47;5013049;28;20068;-44
2022/05/17 04:12:06;;;;;;;6.55;3.42;;;12.80;99.90;;;12.51;100.00;97728.63;5006251;28;20127;-47
2022/05/17 04:14:32;;;;;;;4.90;3.35;;;12.80;99.90;;;12.53;100.00;97728.56;5010135;28;20505;-46
2022/05/17 04:16:57;;;;;;;7.40;3.50;;;12.80;99.90;;;12.54;100.00;97731.16;5009077;28;20337;-43
2022/05/17 04:19:23;;;;;;;6.50;3.72;;;12.80;99.90;;;12.58;100.00;97734.53;5011799;28;20033;-44
2022/05/17 04:21:49;;;;;;;4.70;3.50;;;12.90;99.90;;;12.62;100.00;97735.28;5005459;28;20429;-44
2022/05/17 04:24:15;;;;;;;7.55;3.58;;;12.90;99.90;;;12.66;100.00;97743.00;5007970;28;20116;-44
2022/05/17 04:26:42;;;;;;;4.78;3.17;;;12.90;99.90;;;12.71;100.00;97742.84;5008664;28;20033;-45
2022/05/17 04:29:08;;;;;;;5.68;3.55;;;13.00;99.90;;;12.77;100.00;97745.22;5009168;28;20481;-44
2022/05/17 04:31:36;;;;;;;5.90;3.45;;;13.00;99.90;;;12.80;100.00;97748.63;5008088;28;20356;-43
2022/05/17 04:34:03;;;;;;;4.57;3.33;;;13.10;99.90;;;12.80;100.00;97735.38;5015035;28;20033;-46
2022/05/17 04:36:30;;;;;;;5.93;3.53;;;13.20;99.90;;;13.00;100.00;97760.19;5008138;28;20033;-46
2022/05/17 04:38:55;;;;;;;4.25;3.47;;;13.20;99.90;;;13.06;100.00;97756.41;5009162;28;20118;-47
2022/05/17 04:41:21;;;;;;;5.88;3.80;;;13.30;99.90;;;13.11;100.00;97763.25;5008898;28;20481;-46
2022/05/17 04:43:47;;;;;;;5.47;3.70;;;13.40;99.90;;;13.18;100.00;97764.72;5006727;28;20029;-45
2022/05/17 04:46:13;;;;;;;3.83;3.40;;;13.50;99.90;;;13.26;100.00;97766.19;5006286;28;20239;-45
2022/05/17 04:48:39;;;;;;;10.60;5.05;;;13.50;99.90;;;13.35;100.00;97752.56;5006479;28;20084;-46
2022/05/17 04:51:11;;;;;;;5.30;3.65;;;13.60;99.90;;;13.45;100.00;97764.50;5010685;28;20057;-48
2022/05/17 04:53:39;;;;;;;6.30;3.85;;;13.70;99.90;;;13.53;100.00;97766.81;5008532;28;20701;-47
2022/05/17 04:56:06;;;;;;;6.45;3.42;;;13.80;99.90;;;13.63;100.00;97768.16;5004921;28;20045;-47
2022/05/17 04:58:33;;;;;;;5.93;4.25;;;13.90;99.90;;;13.70;100.00;97769.59;5006267;28;20037;-44
2022/05/17 05:00:59;;;;;;;7.07;3.72;;;14.00;99.90;;;13.79;100.00;97770.16;5008960;28;20413;-47
2022/05/17 05:03:25;;;;;;;6.47;3.83;;;14.10;99.90;;;13.86;100.00;97766.31;5018019;28;20116;-48
2022/05/17 05:05:51;;;;;;;5.18;3.55;;;14.10;99.90;;;13.97;100.00;97765.81;5008407;28;20025;-48
2022/05/17 05:08:17;;;;;;;5.38;3.17;;;14.20;99.90;;;14.01;100.00;97762.94;5008789;28;20458;-46
2022/05/17 05:10:45;;;;;;;5.07;3.30;;;14.40;99.90;;;14.14;100.00;97771.22;5002759;28;20400;-46
2022/05/17 05:13:19;;;;;;;5.85;3.50;;;14.40;99.90;;;14.24;100.00;97769.84;5010577;28;20377;-46
2022/05/17 05:15:45;;;;;;;6.82;3.88;;;14.60;99.90;;;14.38;100.00;97771.03;5007393;28;20108;-47
2022/05/17 05:18:11;;;;;;;10.50;5.18;;;14.70;99.90;;;14.47;100.00;97767.94;5013446;28;20037;-46
2022/05/17 05:20:39;;;;;;;8.70;4.63;;;14.80;99.90;;;14.57;100.00;97774.56;5013700;28;20064;-44
2022/05/17 05:23:06;;;;;;;6.80;4.05;;;14.90;99.90;;;14.70;100.00;97777.50;5019068;28;20044;-47
2022/05/17 05:25:32;;;;;;;9.30;3.53;;;15.00;99.90;;;14.82;100.00;97779.59;5015711;28;20033;-48
2022/05/17 05:27:58;;;;;;;7.47;3.50;;;15.10;99.90;;;14.99;100.00;97784.06;5018203;28;20029;-47
2022/05/17 05:30:24;;;;;;;6.82;3.55;;;15.20;99.90;;;15.27;100.00;97778.25;5015022;28;20049;-46
2022/05/17 05:32:49;;;;;;;5.78;3.65;;;15.40;99.90;;;15.66;100.00;97786.94;5017130;28;20512;-47
2022/05/17 05:35:20;;;;;;;7.75;3.63;;;15.70;99.90;;;16.11;100.00;97779.34;5010912;28;20026;-46
2022/05/17 05:37:45;;;;;;;5.95;3.55;;;16.00;99.90;;;16.75;100.00;97783.81;5006397;28;20048;-47
2022/05/17 05:40:12;;;;;;;5.13;3.60;;;16.30;99.90;;;17.53;100.00;97790.94;5010069;28;20037;-48
2022/05/17 05:43:31;;;;;;;7.50;3.40;;;16.80;99.90;;;18.02;96.15;97790.72;4987402;28;20499;-46
2022/05/17 05:45:57;;;;;;;6.47;3.90;;;17.20;99.90;;;18.27;91.10;97790.06;4988246;28;20510;-43
2022/05/17 05:48:22;;;;;;;6.60;3.75;;;17.60;99.90;;;18.38;91.55;97786.75;5002614;28;20076;-46
2022/05/17 05:50:51;;;;;;;10.77;4.18;;;17.80;99.90;;;18.31;88.48;97790.75;5006136;28;20034;-46
2022/05/17 05:53:17;;;;;;;5.18;3.20;;;17.90;99.90;;;18.33;89.65;97796.84;5003803;28;20025;-43
2022/05/17 05:55:42;;;;;;;5.07;3.05;;;18.00;99.90;;;18.33;89.01;97794.19;5011557;28;20037;-45
2022/05/17 05:58:09;;;;;;;4.90;2.83;;;18.10;99.90;;;18.35;89.17;97794.09;4998945;28;20033;-47
2022/05/17 06:00:38;;;;;;;3.75;2.88;;;18.20;99.90;;;18.36;89.15;97796.66;5014398;28;20033;-43
2022/05/17 06:03:05;;;;;;;3.78;3.25;;;18.30;99.90;;;18.39;89.58;97801.78;5008715;28;20108;-47
2022/05/17 06:05:31;;;;;;;5.20;3.40;;;18.30;99.90;;;18.39;89.37;97800.94;5012661;28;20367;-46
2022/05/17 06:07:57;;;;;;;4.68;2.88;;;18.40;99.90;;;18.32;89.86;97787.09;5009957;28;20037;-45
2022/05/17 06:10:23;;;;;;;4.82;3.45;;;18.40;99.90;;;18.38;88.71;97805.44;4990532;28;20036;-44
2022/05/17 06:12:50;;;;;;;6.20;3.33;;;18.50;99.90;;;18.42;89.64;97806.94;4992879;28;20321;-44
2022/05/17 06:15:16;;;;;;;5.07;3.00;;;18.50;99.90;;;18.41;89.40;97813.25;5006036;28;20040;-42
2022/05/17 06:17:42;;;;;;;5.25;2.90;;;18.50;99.90;;;18.42;89.97;97811.44;5012423;28;20482;-42
2022/05/17 06:20:14;;;;;;;4.82;2.95;;;18.50;99.90;;;18.42;90.02;97803.44;5017550;28;20037;-43
2022/05/17 06:22:41;;;;;;;;;;;18.60;99.90;;;18.39;88.83;97803.59;5008315;28;20056;-42
2022/05/17 06:25:08;;;;;;;3.83;3.33;;;18.60;99.90;;;18.46;89.19;97805.78;5008966;28;19928;-46
2022/05/17 06:27:34;;;;;;;4.95;3.03;;;18.60;99.90;;;18.50;88.56;97806.47;5011011;28;20045;-45
2022/05/17 06:30:00;;;;;;;6.55;4.15;;;18.60;99.90;;;18.51;87.34;97805.53;5013866;28;20030;-48
2022/05/17 06:32:26;;;;;;;4.72;3.42;;;18.70;99.90;;;18.58;87.57;97806.00;5009366;28;20029;-46
2022/05/17 06:34:51;;;;;;;5.22;3.20;;;18.70;99.90;;;18.70;87.28;97797.22;5024971;23;20045;-40
2022/05/17 06:37:17;;;;;;;8.48;3.90;;;18.90;99.90;;;18.81;85.86;97805.44;5010435;28;20124;-40
2022/05/17 06:39:43;;;;;;;5.43;3.40;;;18.90;99.90;;;18.91;85.12;97812.84;5008287;28;20548;-40
2022/05/17 06:42:09;;;;;;;6.78;4.13;;;19.00;99.90;;;18.97;85.13;97810.66;5013647;28;20513;-40
2022/05/17 06:44:37;;;;;;;5.72;3.22;;;19.10;99.90;;;19.07;85.17;97816.25;5008092;28;20038;-40
2022/05/17 06:47:04;;;;;;;5.57;3.13;;;19.10;99.90;;;19.16;84.46;97812.97;5010869;28;20041;-40
2022/05/17 06:49:30;;;;;;;5.63;3.55;;;19.20;99.90;;;19.27;83.97;97818.50;5011497;28;20851;-41
2022/05/17 06:52:00;;;;;;;6.45;3.47;;;19.40;99.90;;;19.41;83.13;97814.03;5010820;28;20145;-41
2022/05/17 06:54:25;;;;;;;3.92;3.30;;;19.50;99.90;;;19.49;83.09;97816.19;5013208;28;20018;-41
2022/05/17 06:56:51;;;;;;;4.38;3.10;;;19.60;99.90;;;19.56;82.85;97809.47;5011258;28;20033;-41
2022/05/17 06:59:18;;;;;;;6.43;4.45;;;19.60;99.90;;;19.62;81.74;97817.09;5009625;28;20710;-41
2022/05/17 07:01:44;;;;;;;8.13;4.35;;;19.70;99.90;;;19.63;81.07;97814.31;5015705;28;20091;-41
2022/05/17 07:04:10;;;;;;;7.00;4.32;;;19.70;99.90;;;19.68;81.23;97816.69;5013183;28;20018;-41
2022/05/17 07:06:36;;;;;;;7.15;4.90;;;19.80;99.90;;;19.78;80.91;97814.28;5012114;28;20032;-41
2022/05/17 07:09:02;;;;;;;7.70;3.53;;;19.90;99.90;;;19.89;80.30;97817.09;5012677;28;20037;-41
2022/05/17 07:14:13;;;;;;;6.68;3.50;;;20.10;99.90;;;20.04;79.88;97817.84;5008382;28;20749;-41
2022/05/17 07:16:39;;;;;;;9.15;4.00;;;20.10;99.90;;;20.03;77.31;97822.34;5009329;28;20098;-40
2022/05/17 07:19:05;;;;;;;7.55;4.10;;;20.20;99.90;;;20.05;77.47;97822.25;5016476;28;20046;-41
2022/05/17 07:21:30;;;;;;;5.65;3.65;;;20.20;99.90;;;20.00;77.67;97800.28;5012806;28;20029;-40
2022/05/17 07:23:56;;;;;;;6.03;3.95;;;20.20;99.90;;;20.17;77.02;97828.56;5009129;28;20041;-40
2022/05/17 07:26:22;;;;;;;6.75;3.85;;;20.20;99.90;;;20.25;77.55;97828.03;5011263;28;20037;-40
2022/05/17 07:28:48;;;;;;;11.32;3.97;;;20.30;99.90;;;20.31;76.88;97824.94;5014049;28;20075;-40
2022/05/17 07:31:14;;;;;;;10.70;4.40;;;20.40;99.90;;;20.41;76.73;97828.69;5011340;28;20057;-41
2022/05/17 07:33:40;;;;;;;6.00;4.32;;;20.50;99.90;;;20.49;74.28;97833.50;5013445;28;20207;-40
2022/05/17 07:36:08;;;;;;;8.20;4.35;;;20.60;99.90;;;20.49;72.98;97828.97;5011233;28;20038;-40
2022/05/17 07:38:35;;;;;;;8.23;3.72;;;20.60;99.90;;;20.50;72.59;97830.72;5015610;28;20331;-40
2022/05/17 07:41:02;;;;;;;5.35;3.50;;;20.70;99.90;;;20.53;70.68;97822.47;5016276;28;20021;-40
2022/05/17 07:43:28;;;;;;;7.57;3.40;;;20.70;99.90;;;20.64;70.94;97828.91;5014566;28;20555;-41
2022/05/17 07:45:54;;;;;;;7.43;3.42;;;20.80;99.90;;;20.77;70.54;97821.72;5015729;28;20041;-40
2022/05/17 07:48:22;;;;;;;8.27;3.17;;;20.90;99.90;;;20.87;66.86;97824.56;5016707;28;20018;-40
2022/05/17 07:50:49;;;;;;;7.88;3.03;;;21.00;99.90;;;20.94;66.30;97824.03;5016102;28;20207;-40
2022/05/17 07:53:18;;;;;;;5.57;2.90;;;21.10;99.90;;;21.04;63.79;97818.00;5013460;28;20039;-40
2022/05/17 07:55:45;;;;;;;4.40;2.75;;;21.10;99.90;;;21.08;65.03;97814.97;5019166;28;20767;-40
2022/05/17 07:58:12;;;;;;;5.32;3.28;;;21.20;99.90;;;21.14;67.24;97819.03;5015440;28;20371;-40
2022/05/17 08:00:39;;;;;;;5.00;2.55;;;21.20;99.90;;;21.28;67.95;97826.06;5014685;28;20037;-40
2022/05/17 08:03:08;;;;;;;6.28;3.13;;;21.40;99.90;;;21.36;65.89;97821.84;5007660;28;20048;-40
2022/05/17 08:05:35;;;;;;;4.90;3.25;;;21.50;99.90;;;21.37;66.93;97825.38;5006750;28;20030;-40
2022/05/17 08:08:02;;;;;;;4.38;2.90;;;21.50;99.90;;;21.44;66.61;97825.78;5013896;28;20049;-40
2022/05/17 08:10:28;;;;;;;3.65;2.47;;;21.50;99.90;;;21.46;60.75;97824.75;5016003;28;20037;-40
2022/05/17 08:12:53;;;;;;;4.93;2.50;;;21.60;99.90;;;21.54;62.03;97822.31;5009873;28;20033;-40
2022/05/17 08:15:21;;;;;;;6.88;2.90;;;21.60;99.90;;;21.59;63.83;97816.63;5014147;28;20033;-40
2022/05/17 08:17:47;;;;;;;5.28;2.60;;;21.70;99.90;;;21.64;59.62;97816.25;5014281;28;20030;-40
2022/05/17 08:20:13;;;;;;;4.38;2.50;;;21.80;99.90;;;21.66;58.69;97820.56;5008399;28;20400;-40
2022/05/17 08:22:44;;;;;;;8.60;2.63;;;21.80;99.90;;;21.72;56.76;97819.22;5011269;28;20033;-41
2022/05/17 08:28:02;;;;;;;4.45;2.53;;;21.80;99.90;;;21.72;62.46;97808.50;5015458;28;20144;-40
2022/05/17 08:30:29;;;;;;;5.20;2.58;;;22.00;99.90;;;21.70;59.35;97815.81;5014475;28;20033;-40
2022/05/17 08:33:14;;;;;;;6.03;3.00;;;22.00;99.90;;;21.80;58.89;97816.81;5010805;28;20029;-41
2022/05/17 08:36:03;;;;;;;6.40;3.08;;;22.10;99.90;;;22.02;59.79;97818.72;5015051;28;20029;-40
2022/05/17 08:38:35;;;;;;;7.35;3.00;;;22.20;99.90;;;22.12;55.49;97810.78;5015040;28;20116;-40
2022/05/17 08:41:38;;;;;;;4.10;2.58;;;22.40;99.90;;;22.27;57.40;97815.03;5011285;28;20067;-40
2022/05/17 08:44:13;;;;;;;;;;;22.50;99.90;;;22.32;56.56;97816.47;5000672;28;20064;-40
2022/05/17 08:47:18;;;;;;;4.10;2.40;;;22.70;99.90;;;22.69;57.11;97806.38;5013005;28;19913;-41
2022/05/17 08:49:59;;;;;;;4.90;2.65;;;22.90;99.90;;;22.83;54.82;97810.66;4998962;28;20029;-40
2022/05/17 08:52:29;;;;;;;7.63;3.08;;;23.10;99.90;;;22.83;54.36;97808.81;4993731;28;20381;-41
2022/05/17 08:55:06;;;;;;;6.63;3.72;;;23.10;99.40;;;22.97;53.49;97801.44;4993344;28;20025;-41
2022/05/17 08:57:53;;;;;;;8.88;3.67;;;23.20;99.00;;;23.05;52.81;97797.19;5016496;28;20061;-41
2022/05/17 09:00:30;;;;;;;10.13;3.38;;;23.20;98.50;;;23.16;53.23;97806.22;4990004;28;20069;-41
2022/05/17 09:03:11;;;;;;;6.78;4.32;;;23.30;98.50;;;23.28;52.04;97805.22;4996470;28;20130;-42
2022/05/17 09:05:56;;;;;;;5.32;3.47;;;23.50;98.00;;;23.41;52.32;97803.19;5014331;28;20048;-41
2022/05/17 09:08:57;;;;;;;5.38;2.90;;;23.60;97.80;;;23.43;54.05;97803.91;5010649;28;20025;-41
2022/05/17 09:11:44;;;;;;;5.57;2.70;;;23.60;98.30;;;23.59;52.30;97802.66;5013212;28;20087;-41
2022/05/17 09:14:16;;;;;;;4.78;2.80;;;23.80;98.40;;;23.57;50.12;97804.63;5013999;28;20033;-40
2022/05/17 09:16:56;;;;;;;5.75;2.92;;;23.80;96.30;;;23.25;50.13;97794.69;5011210;28;20026;-40
2022/05/17 09:19:21;;;;;;;6.78;2.83;;;23.70;95.50;;;23.16;50.77;97792.75;5009366;28;20052;-40
2022/05/17 09:21:53;;;;;;;5.88;2.88;;;23.50;95.70;;;23.35;51.46;97794.81;5015454;28;20037;-39
2022/05/17 09:24:21;;;;;;;7.00;3.00;;;23.60;96.50;;;23.39;48.91;97790.88;5012133;28;20057;-40
2022/05/17 09:26:52;;;;;;;4.75;2.35;;;23.60;95.00;;;23.62;48.16;97795.19;5006654;28;20034;-40
2022/05/17 09:29:35;;;;;;;7.53;2.63;;;23.70;94.70;;;23.62;48.26;97802.41;5005175;28;20037;-40
2022/05/17 09:32:07;;;;;;;5.07;2.70;;;23.80;94.20;;;23.63;47.60;97796.91;4987403;28;20065;-41
2022/05/17 09:34:45;;;;;;;5.40;2.50;;;23.90;93.70;;;23.48;48.64;97797.31;4988491;28;20049;-42
2022/05/17 09:37:20;;;;;;;5.30;2.67;;;23.90;94.00;;;23.33;49.10;97785.97;5013879;28;20021;-40
2022/05/17 09:39:51;;;;;;;5.93;2.95;;;23.80;93.70;;;23.28;48.08;97801.66;5015777;28;20061;-40
2022/05/17 09:42:34;;;;;;;7.43;2.28;;;23.60;93.20;;;23.30;48.11;97799.72;5015664;28;20060;-40
2022/05/17 09:45:07;;;;;;;7.43;2.78;;;23.60;93.30;;;23.14;48.66;97800.13;5011051;28;20045;-41
2022/05/17 09:47:42;;;;;;;3.75;2.33;;;23.50;93.20;;;23.22;50.98;97794.94;5009118;28;20033;-40
2022/05/17 09:53:17;;;;;;;8.20;2.63;;;23.50;94.80;;;23.28;51.59;97783.69;5006488;28;20068;-39
2022/05/17 09:55:50;;;;;;;2.92;2.30;;;23.60;94.90;;;23.37;53.04;97795.53;5014935;28;20071;-40
2022/05/17 09:58:38;;;;;;;3.58;1.80;;;23.60;95.50;;;23.39;55.98;97791.72;5000260;28;20128;-40
2022/05/17 10:01:14;;;;;;;5.97;2.20;;;23.50;97.00;;;23.32;55.42;97795.91;5008363;28;20104;-40
2022/05/17 10:03:44;;;;;;;7.25;2.72;;;23.50;96.60;;;23.37;49.92;97800.91;5005612;28;20253;-40
2022/05/17 10:06:29;;;;;;;3.75;2.50;;;23.50;95.20;;;23.32;50.15;97793.19;5007268;28;20055;-42
2022/05/17 10:09:10;;;;;;;4.65;2.50;;;23.50;94.70;;;23.28;50.14;97798.97;4993064;28;20095;-40
2022/05/17 10:12:04;;;;;;;4.70;2.47;;;23.40;94.10;;;23.30;49.68;97795.16;5003008;28;20021;-39
2022/05/17 10:14:38;;;;;;;4.50;2.28;;;23.50;94.00;;;23.27;49.70;97791.88;4985098;28;20460;-41
2022/05/17 10:17:20;;;;;;;4.10;2.30;;;23.50;93.70;;;23.27;50.06;97786.50;5001829;28;20060;-40
2022/05/17 10:19:55;;;;;;;8.53;2.57;;;23.50;94.10;;;23.23;49.96;97796.66;5010205;28;20473;-40
2022/05/17 10:22:54;;;;;;;3.20;2.35;;;23.50;94.40;;;23.19;48.83;97787.13;5008787;28;20311;-40
2022/05/17 10:25:47;;;;;;;3.83;2.38;;;23.50;93.20;;;23.13;48.37;97784.94;5006998;28;20033;-40
2022/05/17 10:28:34;;;;;;;8.55;2.50;;;23.30;92.50;;;23.17;50.08;97781.88;5006149;28;20497;-40
2022/05/17 10:31:40;;;;;;;2.72;2.03;;;23.30;93.60;;;23.32;50.41;97778.91;4998675;28;20045;-40
2022/05/17 10:34:38;;;;;;;5.80;2.17;;;23.50;93.60;;;23.53;48.33;97784.34;4962883;28;1020210;-40
2022/05/17 10:37:15;;;;;;;6.22;2.30;;;23.60;92.60;;;23.49;48.55;97780.16;5000871;28;20036;-40